Flight Track Log - Related Links

Times and Time Zones

All times are in EDT time to prevent confusion due to time zone crossing. See the RPA3253 flight status page for this flight to view local times or setup timezone preferences in your user account.

Time Position Orientation Groundspeed Altitude Reporting Facility
EDT Latitude Longitude Course Direction KTS MPH feet Rate Location/Type
Mon 08:58:27 PM 42.7278 -73.8081 169° South 153 176 1,300  Level Boston Center
Mon 08:59:34 PM 42.6939 -73.8469 220° Southwest 208 239 3,600 2,471 Climbing Boston Center
Mon 09:00:00 PM 42.5160 -74.0551 171° South  Level Estimated
Mon 09:00:43 PM 42.7328 -73.9014 314° West 198 228 6,900  Level Boston Center
Mon 09:01:00 PM 42.4382 -74.1391 180° South  Level Estimated
Mon 09:01:43 PM 42.7928 -73.9481 330° Northwest 228 262 10,400  Level Boston Center
Mon 09:02:00 PM 42.3603 -74.2228 170° South  Level Estimated
Mon 09:02:43 PM 42.8061 -74.0306 282° West 222 255 11,900  Level Boston Center
Mon 09:03:00 PM 42.2824 -74.3064 169° South  Level Estimated
Mon 09:03:43 PM 42.7144 -74.0311 180° South 161 185 14,200  Level Boston Center
Mon 09:04:43 PM 42.6150 -73.9833 161° South 267 307 16,900 2,650 Climbing Boston Center
Mon 09:05:43 PM 42.5136 -73.9386 162° South 327 376 19,500 2,150 Climbing Boston Center
Mon 09:06:43 PM 42.4058 -73.8881 161° South 377 434 21,200 1,750 Climbing Boston Center
Mon 09:07:43 PM 42.2939 -73.8378 162° South 413 475 23,000 1,650 Climbing Boston Center
Mon 09:08:43 PM 42.1778 -73.7875 162° South 431 496 24,500 1,450 Climbing Boston Center
Mon 09:09:43 PM 42.0611 -73.7850 179° South 431 496 25,900 1,500 Climbing Boston Center
Mon 09:11:39 PM 41.8472 -73.8897 200° South 406 467 28,900 1,398 Climbing New York Center
Mon 09:12:39 PM 41.7417 -73.9431 201° Southwest 406 467 30,000 1,017 Climbing New York Center
Mon 09:13:37 PM 41.6319 -73.9933 199° South 416 479 30,900 966 Climbing New York Center
Mon 09:14:37 PM 41.5264 -74.0464 201° Southwest 411 473 31,900 541 Climbing New York Center
Mon 09:15:39 PM 41.4167 -74.1019 201° Southwest 416 479 32,000 50 Climbing New York Center
Mon 09:16:37 PM 41.3067 -74.1572 201° Southwest 416 479 32,000  Level New York Center
Mon 09:17:38 PM 41.1928 -74.2067 198° South 421 484 32,000  Level New York Center
Mon 09:18:38 PM 41.0831 -74.2589 200° South 421 484 32,000  Level New York Center
Mon 09:19:39 PM 40.9989 -74.3533 220° Southwest 406 467 32,000  Level New York Center
Mon 09:20:37 PM 40.9208 -74.4536 224° Southwest 405 466 32,000  Level New York Center
Mon 09:21:38 PM 40.8472 -74.5428 223° Southwest 405 466 32,000  Level New York Center
Mon 09:22:38 PM 40.7647 -74.6453 223° Southwest 405 466 32,000  Level New York Center
Mon 09:23:39 PM 40.6844 -74.7447 223° Southwest 405 466 32,000  Level New York Center
Mon 09:24:39 PM 40.6039 -74.8439 223° Southwest 405 466 32,000  Level New York Center
Mon 09:25:37 PM 40.5233 -74.9428 218° Southwest 405 466 32,000  Level New York Center
Mon 09:26:00 PM 40.4950 -74.9540 218° Southwest  Level FlightAware Approximate
Mon 09:26:38 PM 40.4403 -75.0469 224° Southwest 405 466 32,000  Level New York Center
Mon 09:27:39 PM 40.3553 -75.1478 222° Southwest 410 472 32,000  Level New York Center
Mon 09:28:39 PM 40.2767 -75.2461 224° Southwest 405 466 32,000  Level New York Center
Mon 09:29:38 PM 40.1981 -75.3417 223° Southwest 405 466 32,000  Level New York Center
Mon 09:31:00 PM 40.0940 -75.4623 222° Southwest  Level FlightAware Approximate
Mon 09:31:39 PM 40.0339 -75.5369 222° Southwest 400 460 32,000  Level New York Center
Mon 09:32:37 PM 39.9506 -75.6369 223° Southwest 400 460 32,000  Level New York Center
Mon 09:33:37 PM 39.8750 -75.7481 228° Southwest 405 466 32,000  Level New York Center
Mon 09:34:38 PM 39.8056 -75.8592 231° Southwest 410 472 32,000  Level New York Center
Mon 09:36:54 PM 39.6353 -76.1250 230° Southwest 420 483 32,000  Level Washington Center
Mon 09:37:54 PM 39.5619 -76.2375 230° Southwest 420 483 32,000  Level Washington Center
Mon 09:38:53 PM 39.4883 -76.3525 230° Southwest 425 489 32,000  Level Washington Center
Mon 09:39:53 PM 39.4167 -76.4647 230° Southwest 425 489 32,000  Level Washington Center
Mon 09:40:54 PM 39.3450 -76.5683 228° Southwest 430 495 32,000  Level Washington Center
Mon 09:41:52 PM 39.2731 -76.6828 231° Southwest 430 495 32,000  Level Washington Center
Mon 09:42:53 PM 39.1992 -76.7967 230° Southwest 425 489 32,000  Level Washington Center
Mon 09:43:53 PM 39.1250 -76.9133 231° Southwest 425 489 32,000  Level Washington Center
Mon 09:44:54 PM 39.0550 -77.0217 230° Southwest 420 483 32,000  Level Washington Center
Mon 09:45:53 PM 38.9725 -77.1189 223° Southwest 413 475 32,000 50 Level Washington Center
Mon 09:46:54 PM 38.8858 -77.2103 219° Southwest 408 470 32,100 595 Climbing Washington Center
Mon 09:47:54 PM 38.7969 -77.3069 220° Southwest 415 478 33,200 1,220 Climbing Washington Center
Mon 09:48:52 PM 38.7100 -77.4008 220° Southwest 415 478 34,500 1,311 Climbing Washington Center
Mon 09:49:53 PM 38.6275 -77.4917 221° Southwest 410 472 35,800 732 Climbing Washington Center
Mon 09:50:55 PM 38.5444 -77.5853 221° Southwest 405 466 36,000 101 Climbing Washington Center
Mon 09:51:52 PM 38.4597 -77.6758 220° Southwest 405 466 36,000  Level Washington Center
Mon 09:52:52 PM 38.3703 -77.7739 221° Southwest 410 472 36,000  Level Washington Center
Mon 09:53:53 PM 38.2789 -77.8717 220° Southwest 420 483 36,000  Level Washington Center
Mon 09:54:53 PM 38.1894 -77.9694 221° Southwest 428 493 36,000  Level Washington Center
Mon 09:55:54 PM 38.0956 -78.0667 219° Southwest 435 501 36,000  Level Washington Center
Mon 09:56:54 PM 38.0081 -78.1639 221° Southwest 435 501 36,000  Level Washington Center
Mon 09:57:54 PM 37.9392 -78.2669 230° Southwest 407 468 36,000  Level Washington Center
Mon 09:58:52 PM 37.8658 -78.3747 229° Southwest 407 468 36,000  Level Washington Center
Mon 09:59:54 PM 37.7836 -78.4900 228° Southwest 407 468 36,000  Level Washington Center
Mon 10:00:52 PM 37.7103 -78.5975 229° Southwest 407 468 36,000  Level Washington Center
Mon 10:01:53 PM 37.6344 -78.7047 228° Southwest 402 463 36,000 -248 Level Washington Center
Mon 10:02:53 PM 37.5586 -78.8089 227° Southwest 402 463 35,500 -750 Descending Washington Center
Mon 10:03:53 PM 37.4914 -78.9028 228° Southwest 402 463 34,500 -1,131 Descending Washington Center
Mon 10:04:55 PM 37.4153 -79.0119 229° Southwest 402 463 33,200 -1,412 Descending Washington Center
Mon 10:05:52 PM 37.3372 -79.1183 227° Southwest 408 470 31,700 -1,576 Descending Washington Center
Mon 10:06:53 PM 37.2586 -79.2294 228° Southwest 420 483 30,100 -1,600 Descending Washington Center
Mon 10:07:52 PM 37.1622 -79.3186 216° Southwest 425 489 28,500 -1,059 Descending Washington Center
Mon 10:08:52 PM 37.0531 -79.4072 213° Southwest 434 499 28,000 -246 Descending Washington Center
Mon 10:09:54 PM 36.9522 -79.4906 213° Southwest 434 499 28,000  Level Washington Center
Mon 10:10:53 PM 36.8536 -79.5711 213° Southwest 434 499 28,000  Level Washington Center
Mon 10:11:54 PM 36.7550 -79.6517 213° Southwest 434 499 28,000  Level Washington Center
Mon 10:13:20 PM 36.6217 -79.7581 213° Southwest 440 506 28,000 -781 Level Atlanta Center
Mon 10:14:20 PM 36.5161 -79.8411 212° Southwest 428 493 26,100 -1,900 Descending Atlanta Center
Mon 10:15:20 PM 36.4269 -79.9128 213° Southwest 411 473 24,200 -1,850 Descending Atlanta Center
Mon 10:16:20 PM 36.3356 -79.9872 213° Southwest 399 459 22,400 -1,750 Descending Atlanta Center
Mon 10:17:20 PM 36.2522 -80.0558 214° Southwest 394 453 20,700 -1,450 Descending Atlanta Center
Mon 10:18:20 PM 36.1853 -80.1156 216° Southwest 358 412 19,500 -1,250 Descending Atlanta Center
Mon 10:19:20 PM 36.1122 -80.1758 214° Southwest 336 387 18,200 -1,200 Descending Atlanta Center
Mon 10:20:20 PM 36.0411 -80.2381 215° Southwest 324 373 17,100 -1,300 Descending Atlanta Center
Mon 10:21:20 PM 35.9619 -80.3061 215° Southwest 324 373 15,600 -1,400 Descending Atlanta Center
Mon 10:22:20 PM 35.8928 -80.3681 216° Southwest 324 373 14,300 -1,250 Descending Atlanta Center
Mon 10:23:20 PM 35.8194 -80.4303 215° Southwest 324 373 13,100 -1,200 Descending Atlanta Center
Mon 10:24:20 PM 35.7436 -80.4722 204° Southwest 309 356 11,900 -1,050 Descending Atlanta Center
Mon 10:25:20 PM 35.6736 -80.5083 203° Southwest 304 350 11,000 -900 Descending Atlanta Center
Mon 10:26:20 PM 35.5956 -80.5450 201° Southwest 304 350 10,100 -1,200 Descending Atlanta Center
Mon 10:27:20 PM 35.5192 -80.5789 200° South 304 350 8,600 -1,512 Descending Atlanta Center
Mon 10:28:23 PM 35.4433 -80.6281 208° Southwest 283 326 7,000 -1,600 Descending Atlanta Center
Mon 10:29:20 PM 35.3992 -80.6883 228° Southwest 284 327 5,400 -1,538 Descending Atlanta Center
Mon 10:30:20 PM 35.3428 -80.7644 228° Southwest 273 314 4,000 -1,000 Descending Atlanta Center
Mon 10:31:20 PM 35.3300 -80.8311 257° West 217 250 3,400 -714 Descending Atlanta Center
Mon 10:32:26 PM 35.2931 -80.8581 211° Southwest 154 177 2,500 -722 Descending Atlanta Center
Mon 10:33:33 PM 35.2564 -80.8875 213° Southwest 123 142 1,800 -656 Descending Atlanta Center
Mon 10:34:34 PM 35.2342 -80.9189 229° Southwest 127 146 1,100 -689 Descending Atlanta Center

Login

Don't have an account? Register now (free) for customized features, flight alerts, and more!